Time;durP1;ratioP1;P1;durP2;ratioP2;P2;SDS_P1;SDS_P2;PMS_P1;PMS_P2;Temp;Humidity;BMP_temperature;BMP_pressure;BME280_temperature;BME280_humidity;BME280_pressure;Samples;Min_cycle;Max_cycle;Signal;HPM_P1;HPM_P2
2021/01/06 00:00:49;;;;;;;32.63;16.47;;;2.70;99.90;;;;;;4912841;29;20200;-76
2021/01/06 00:03:20;;;;;;;38.27;20.53;;;2.70;99.90;;;;;;4914085;29;20263;-76
2021/01/06 00:05:50;;;;;;;35.30;19.00;;;2.70;99.90;;;;;;4929966;29;20674;-76
2021/01/06 00:08:18;;;;;;;38.17;19.80;;;2.70;99.90;;;;;;4947450;29;20271;-76
2021/01/06 00:11:05;;;;;;;41.77;20.13;;;2.70;99.90;;;;;;4946918;28;20207;-76
2021/01/06 00:13:33;;;;;;;44.60;24.97;;;2.70;99.90;;;;;;4946298;28;20211;-75
2021/01/06 00:15:59;;;;;;;54.00;27.40;;;2.70;99.90;;;;;;4931675;29;20619;-76
2021/01/06 00:18:27;;;;;;;48.77;26.60;;;2.70;99.90;;;;;;4931644;29;20204;-76
2021/01/06 00:20:55;;;;;;;46.00;25.23;;;2.70;99.90;;;;;;4931221;29;20262;-76
2021/01/06 00:23:23;;;;;;;41.77;23.97;;;2.60;99.90;;;;;;4931906;29;20709;-76
2021/01/06 00:25:50;;;;;;;42.33;24.30;;;2.60;99.90;;;;;;4931370;29;20215;-75
2021/01/06 00:28:20;;;;;;;43.40;23.67;;;2.60;99.90;;;;;;4932502;29;20297;-76
2021/01/06 00:30:58;;;;;;;36.77;22.67;;;2.50;99.90;;;;;;4931611;29;20263;-76
2021/01/06 00:33:34;;;;;;;38.40;22.87;;;2.50;99.90;;;;;;4931042;29;20243;-76
2021/01/06 00:36:09;;;;;;;37.63;23.00;;;2.50;99.90;;;;;;4931313;29;20184;-76
2021/01/06 00:38:38;;;;;;;43.43;23.40;;;2.40;99.90;;;;;;4931029;29;20286;-76
2021/01/06 00:41:06;;;;;;;38.10;22.27;;;2.40;99.90;;;;;;4932458;29;20240;-76
2021/01/06 00:43:33;;;;;;;43.30;21.80;;;2.30;99.90;;;;;;4930974;29;20367;-76
2021/01/06 00:46:00;;;;;;;36.83;21.30;;;2.30;99.90;;;;;;4931044;29;20199;-76
2021/01/06 00:48:27;;;;;;;35.87;20.43;;;2.30;99.90;;;;;;4930518;29;20768;-76
2021/01/06 00:50:54;;;;;;;33.40;19.67;;;2.20;99.90;;;;;;4931013;29;20204;-76
2021/01/06 00:53:26;;;;;;;37.30;20.87;;;2.20;99.90;;;;;;4931745;29;20203;-76
2021/01/06 00:55:54;;;;;;;34.83;20.07;;;2.20;99.90;;;;;;4930639;29;20207;-76
2021/01/06 00:58:21;;;;;;;32.93;18.73;;;2.10;99.90;;;;;;4930790;29;20275;-76
2021/01/06 01:00:48;;;;;;;31.70;19.47;;;2.10;99.90;;;;;;4930905;29;20303;-76
2021/01/06 01:03:16;;;;;;;34.60;18.70;;;2.10;99.90;;;;;;4930302;29;20741;-76
2021/01/06 01:05:45;;;;;;;33.07;20.13;;;2.00;99.90;;;;;;4930791;29;20494;-76
2021/01/06 01:08:13;;;;;;;32.63;18.63;;;2.00;99.90;;;;;;4946513;29;20251;-76
2021/01/06 01:10:43;;;;;;;32.63;18.13;;;2.00;99.90;;;;;;4946363;29;20239;-76
2021/01/06 01:13:25;;;;;;;32.47;18.53;;;1.90;99.90;;;;;;4930439;29;20328;-76
2021/01/06 01:15:55;;;;;;;32.60;19.00;;;1.80;99.90;;;;;;4930251;29;20215;-76
2021/01/06 01:18:25;;;;;;;34.07;20.07;;;1.80;99.90;;;;;;4931382;29;20215;-76
2021/01/06 01:20:55;;;;;;;30.50;18.40;;;1.80;99.90;;;;;;4930594;29;20245;-75
2021/01/06 01:23:24;;;;;;;29.47;17.57;;;1.80;99.90;;;;;;4929474;29;20247;-76
2021/01/06 01:25:52;;;;;;;32.60;18.17;;;1.80;99.90;;;;;;4930055;29;20204;-76
2021/01/06 01:28:21;;;;;;;31.77;18.63;;;1.70;99.90;;;;;;4930372;29;20230;-76
2021/01/06 01:30:49;;;;;;;36.17;19.53;;;1.70;99.90;;;;;;4930506;29;20379;-76
2021/01/06 01:33:17;;;;;;;33.83;19.27;;;1.70;99.90;;;;;;4931424;29;20650;-76
2021/01/06 01:35:44;;;;;;;33.30;19.13;;;1.70;99.90;;;;;;4930019;29;20443;-76
2021/01/06 01:38:21;;;;;;;36.17;19.73;;;1.70;99.90;;;;;;4930008;29;20250;-76
2021/01/06 01:41:06;;;;;;;36.80;20.10;;;1.60;99.90;;;;;;4926837;29;20258;-76
2021/01/06 01:43:35;;;;;;;31.33;18.13;;;1.60;99.90;;;;;;4910747;29;20785;-76
2021/01/06 01:46:03;;;;;;;35.93;18.57;;;1.60;99.90;;;;;;4926794;29;20201;-76
2021/01/06 01:48:41;;;;;;;30.47;18.80;;;1.60;99.90;;;;;;4926609;29;20239;-76
2021/01/06 01:51:29;;;;;;;36.30;20.87;;;1.60;99.90;;;;;;4926468;29;20634;-76
2021/01/06 01:54:03;;;;;;;36.47;18.90;;;1.60;99.90;;;;;;4911557;29;20244;-76
2021/01/06 01:56:43;;;;;;;30.60;19.13;;;1.60;99.90;;;;;;4926472;29;20188;-76
2021/01/06 01:59:26;;;;;;;35.80;19.43;;;1.60;99.90;;;;;;4910449;29;20207;-76
2021/01/06 02:01:58;;;;;;;37.27;18.90;;;1.60;99.90;;;;;;4911062;29;20617;-76
2021/01/06 02:04:37;;;;;;;37.47;19.40;;;1.60;99.90;;;;;;4910663;29;20223;-76
2021/01/06 02:07:15;;;;;;;36.30;20.33;;;1.60;99.90;;;;;;4922267;29;20219;-76
2021/01/06 02:09:49;;;;;;;32.13;18.73;;;1.60;99.90;;;;;;4931055;29;20244;-76
2021/01/06 02:12:24;;;;;;;38.43;20.07;;;1.60;99.90;;;;;;4945096;29;20195;-75
2021/01/06 02:15:04;;;;;;;42.57;20.37;;;1.60;99.90;;;;;;4929142;29;20270;-76
2021/01/06 02:17:31;;;;;;;36.27;19.53;;;1.60;99.90;;;;;;4929681;29;20211;-76
2021/01/06 02:19:58;;;;;;;34.57;19.77;;;1.60;99.90;;;;;;4929024;29;20227;-76
2021/01/06 02:22:25;;;;;;;39.70;21.60;;;1.70;99.90;;;;;;4929254;29;20298;-76
2021/01/06 02:24:53;;;;;;;35.97;20.63;;;1.60;99.90;;;;;;4929098;29;20215;-76
2021/01/06 02:27:21;;;;;;;36.93;20.50;;;1.70;99.90;;;;;;4929388;29;20326;-76
2021/01/06 02:29:48;;;;;;;38.77;21.43;;;1.70;99.90;;;;;;4930299;29;20262;-76
2021/01/06 02:32:15;;;;;;;35.60;20.27;;;1.70;99.90;;;;;;4929360;29;20215;-76
2021/01/06 02:34:43;;;;;;;41.30;22.37;;;1.70;99.90;;;;;;4929137;29;20783;-76
2021/01/06 02:37:10;;;;;;;48.53;23.13;;;1.70;99.90;;;;;;4928989;29;20215;-76
2021/01/06 02:39:38;;;;;;;48.23;23.23;;;1.70;99.90;;;;;;4929118;29;20204;-76
2021/01/06 02:42:06;;;;;;;44.10;22.43;;;1.80;99.90;;;;;;4925716;29;20710;-76
2021/01/06 02:44:34;;;;;;;44.53;21.80;;;1.80;99.90;;;;;;4911460;29;20666;-76
2021/01/06 02:47:01;;;;;;;46.23;22.73;;;1.80;99.90;;;;;;4910079;29;20578;-76
2021/01/06 02:49:28;;;;;;;46.47;23.17;;;1.80;99.90;;;;;;4910326;29;20208;-75
2021/01/06 02:52:03;;;;;;;46.57;21.83;;;1.80;99.90;;;;;;4911236;29;20212;-76
2021/01/06 02:54:40;;;;;;;46.07;22.10;;;1.80;99.90;;;;;;4909989;29;20211;-76
2021/01/06 02:57:08;;;;;;;40.40;21.60;;;1.80;99.90;;;;;;4911583;29;20310;-76
2021/01/06 02:59:48;;;;;;;48.40;23.23;;;1.80;99.90;;;;;;4909652;29;20732;-76
2021/01/06 03:02:20;;;;;;;42.80;22.87;;;1.80;99.90;;;;;;4925940;29;20628;-76
2021/01/06 03:05:19;;;;;;;44.27;21.73;;;1.80;99.90;;;;;;4911315;29;20308;-76
2021/01/06 03:07:47;;;;;;;40.43;20.43;;;1.80;99.90;;;;;;4926823;29;20220;-76
2021/01/06 03:10:17;;;;;;;40.70;21.17;;;1.80;99.90;;;;;;4929918;29;20239;-76
2021/01/06 03:12:46;;;;;;;39.37;19.60;;;1.80;99.90;;;;;;4930464;29;20203;-76
2021/01/06 03:15:16;;;;;;;42.87;21.43;;;1.70;99.90;;;;;;4928840;29;20215;-76
2021/01/06 03:17:43;;;;;;;36.47;20.00;;;1.70;99.90;;;;;;4928990;29;20251;-76
2021/01/06 03:20:19;;;;;;;45.20;21.77;;;1.70;99.90;;;;;;4928776;29;20231;-76
2021/01/06 03:22:51;;;;;;;42.03;21.43;;;1.60;99.90;;;;;;4928769;29;20243;-76
2021/01/06 03:25:18;;;;;;;39.77;20.07;;;1.60;99.90;;;;;;4944296;29;20274;-76
2021/01/06 03:27:48;;;;;;;35.20;17.80;;;1.60;99.90;;;;;;4930092;29;20223;-76
2021/01/06 03:30:35;;;;;;;31.07;18.70;;;1.60;99.90;;;;;;4928523;29;20681;-76
2021/01/06 03:33:20;;;;;;;29.30;17.37;;;1.50;99.90;;;;;;4930160;29;20231;-76
2021/01/06 03:35:58;;;;;;;30.30;17.67;;;1.50;99.90;;;;;;4929062;29;20222;-76
2021/01/06 03:38:36;;;;;;;30.93;17.53;;;1.50;99.90;;;;;;4928839;29;20638;-76
2021/01/06 03:41:06;;;;;;;29.93;16.20;;;1.40;99.90;;;;;;4928984;29;20211;-76
2021/01/06 03:43:36;;;;;;;29.53;16.53;;;1.40;99.90;;;;;;4928404;29;20616;-76
2021/01/06 03:46:30;;;;;;;32.33;16.40;;;1.40;99.90;;;;;;4929625;29;20275;-76
2021/01/06 03:49:24;;;;;;;32.73;16.87;;;1.40;99.90;;;;;;4931306;29;20220;-76
2021/01/06 03:52:06;;;;;;;27.63;16.47;;;1.30;99.90;;;;;;4932258;29;20185;-76
2021/01/06 03:55:04;;;;;;;26.83;14.90;;;1.30;99.90;;;;;;4933041;29;20211;-76
2021/01/06 03:57:31;;;;;;;27.50;15.00;;;1.30;99.90;;;;;;4941165;29;20207;-76
2021/01/06 04:00:00;;;;;;;27.83;15.80;;;1.30;99.90;;;;;;4933149;29;20286;-76
2021/01/06 04:02:56;;;;;;;29.43;15.43;;;1.30;99.90;;;;;;4932062;29;20697;-76
2021/01/06 04:05:24;;;;;;;24.47;15.03;;;1.30;99.90;;;;;;4930623;29;20582;-76
2021/01/06 04:07:56;;;;;;;37.63;16.27;;;1.30;99.90;;;;;;4929282;29;20370;-76
2021/01/06 04:10:30;;;;;;;27.77;15.57;;;1.30;99.90;;;;;;4947713;29;20255;-76
2021/01/06 04:12:58;;;;;;;27.70;15.40;;;1.20;99.90;;;;;;4933193;29;20191;-76
2021/01/06 04:15:26;;;;;;;26.07;16.17;;;1.30;99.90;;;;;;4932716;29;20258;-76
2021/01/06 04:17:55;;;;;;;29.00;15.83;;;1.20;99.90;;;;;;4947895;29;20207;-76
2021/01/06 04:20:32;;;;;;;25.40;13.60;;;1.20;99.90;;;;;;4947710;29;20235;-76
2021/01/06 04:23:02;;;;;;;23.77;14.37;;;1.20;99.90;;;;;;4947482;29;20298;-76
2021/01/06 04:25:32;;;;;;;30.90;15.37;;;1.20;99.90;;;;;;4932857;29;20203;-75
2021/01/06 04:28:04;;;;;;;21.37;13.50;;;1.20;99.90;;;;;;4947645;29;20270;-76
2021/01/06 04:30:43;;;;;;;24.60;14.97;;;1.20;99.90;;;;;;4933225;29;20630;-75
2021/01/06 04:33:40;;;;;;;26.77;13.63;;;1.20;99.90;;;;;;4947555;29;20646;-75
2021/01/06 04:36:12;;;;;;;26.77;13.67;;;1.20;99.90;;;;;;4947811;29;20240;-75
2021/01/06 04:38:44;;;;;;;19.80;13.03;;;1.20;99.90;;;;;;4932969;29;20271;-75
2021/01/06 04:41:41;;;;;;;25.47;13.83;;;1.20;99.90;;;;;;4947866;29;20207;-75
2021/01/06 04:44:20;;;;;;;23.93;13.83;;;1.20;99.90;;;;;;4932626;29;20270;-75
2021/01/06 04:47:16;;;;;;;23.93;13.13;;;1.20;99.90;;;;;;4931568;29;20222;-75
2021/01/06 04:49:56;;;;;;;22.37;13.43;;;1.20;99.90;;;;;;4926473;29;20239;-75
2021/01/06 04:52:22;;;;;;;21.83;12.53;;;1.20;99.90;;;;;;4931329;29;20255;-75
2021/01/06 04:55:16;;;;;;;19.80;11.87;;;1.20;99.90;;;;;;4930815;29;20282;-75
2021/01/06 04:58:09;;;;;;;21.97;12.20;;;1.20;99.90;;;;;;4931095;29;20224;-75
2021/01/06 05:01:06;;;;;;;21.07;11.83;;;1.20;99.90;;;;;;4932319;29;20203;-75
2021/01/06 05:04:02;;;;;;;19.83;11.40;;;1.20;99.90;;;;;;4946749;29;20314;-75
2021/01/06 05:06:56;;;;;;;19.20;11.23;;;1.20;99.90;;;;;;4927527;29;20207;-75
2021/01/06 05:09:31;;;;;;;18.40;11.23;;;1.20;99.90;;;;;;4947026;29;20184;-75
2021/01/06 05:12:42;;;;;;;18.63;10.77;;;1.20;99.90;;;;;;4946770;29;20234;-75
2021/01/06 05:15:09;;;;;;;15.03;10.00;;;1.20;99.90;;;;;;4946558;29;20199;-75
2021/01/06 05:17:36;;;;;;;16.43;10.23;;;1.10;99.90;;;;;;4930490;29;20239;-75
2021/01/06 05:20:05;;;;;;;15.90;9.37;;;1.20;99.90;;;;;;4931152;29;20471;-76
2021/01/06 05:22:33;;;;;;;15.97;9.00;;;1.20;99.90;;;;;;4932035;29;20235;-76
2021/01/06 05:25:00;;;;;;;16.60;10.20;;;1.20;99.90;;;;;;4947120;29;20677;-76
2021/01/06 05:27:36;;;;;;;16.87;9.43;;;1.20;99.90;;;;;;4931484;29;20302;-76
2021/01/06 05:30:28;;;;;;;14.83;9.17;;;1.20;99.90;;;;;;4931504;29;20295;-76
2021/01/06 05:33:12;;;;;;;13.20;7.90;;;1.20;99.90;;;;;;4947185;29;20247;-76
2021/01/06 05:35:46;;;;;;;12.70;7.67;;;1.20;99.90;;;;;;4931891;29;20203;-76
2021/01/06 05:38:14;;;;;;;14.03;8.33;;;1.20;99.90;;;;;;4931114;29;20184;-77
2021/01/06 05:40:42;;;;;;;12.73;7.90;;;1.20;99.90;;;;;;4927291;29;20782;-77
2021/01/06 05:43:18;;;;;;;10.60;7.33;;;1.20;99.90;;;;;;4923326;29;20189;-76
2021/01/06 05:46:05;;;;;;;11.40;7.63;;;1.20;99.90;;;;;;4932924;28;20200;-77
2021/01/06 05:48:38;;;;;;;9.40;6.40;;;1.20;99.90;;;;;;4928113;29;20244;-76
2021/01/06 05:51:19;;;;;;;11.40;7.67;;;1.20;99.90;;;;;;4911583;29;20240;-76
2021/01/06 05:53:58;;;;;;;9.63;7.07;;;1.20;99.90;;;;;;4911247;29;20288;-76
2021/01/06 05:56:35;;;;;;;9.70;7.10;;;1.20;99.90;;;;;;4911410;29;20196;-76
2021/01/06 05:59:41;;;;;;;11.43;7.27;;;1.20;99.90;;;;;;4926624;29;20668;-76
2021/01/06 06:02:27;;;;;;;11.73;6.90;;;1.20;99.90;;;;;;4900346;29;20215;-76
2021/01/06 06:05:27;;;;;;;8.60;6.37;;;1.20;99.90;;;;;;4927268;29;20612;-76
2021/01/06 06:08:17;;;;;;;8.13;6.23;;;1.20;99.90;;;;;;4925378;29;20752;-76
2021/01/06 06:11:14;;;;;;;11.43;7.37;;;1.20;99.90;;;;;;4919596;29;20203;-76
2021/01/06 06:14:02;;;;;;;10.17;6.97;;;1.20;99.90;;;;;;4945824;29;20187;-76
2021/01/06 06:17:02;;;;;;;8.97;6.50;;;1.10;99.90;;;;;;4930214;29;20211;-76
2021/01/06 06:20:07;;;;;;;10.77;6.60;;;1.10;99.90;;;;;;4931728;29;20199;-76
2021/01/06 06:22:49;;;;;;;12.10;6.73;;;1.10;99.90;;;;;;4917946;29;20299;-76
2021/01/06 06:25:22;;;;;;;11.53;7.80;;;1.20;99.90;;;;;;4911277;29;20216;-77
2021/01/06 06:27:53;;;;;;;10.23;7.63;;;1.10;99.90;;;;;;4911173;29;20280;-77
2021/01/06 06:30:48;;;;;;;10.37;7.17;;;1.20;99.90;;;;;;4912269;29;20273;-76
2021/01/06 06:33:29;;;;;;;9.40;7.03;;;1.20;99.90;;;;;;4926162;29;20208;-77
2021/01/06 06:36:21;;;;;;;10.57;6.93;;;1.20;99.90;;;;;;4911820;29;20256;-76
2021/01/06 06:38:50;;;;;;;9.83;6.50;;;1.20;99.90;;;;;;4911457;29;20228;-76
2021/01/06 06:41:23;;;;;;;8.03;7.10;;;1.20;99.90;;;;;;4908003;29;20288;-77
2021/01/06 06:43:53;;;;;;;12.13;7.20;;;1.20;99.90;;;;;;4907904;29;20272;-76
2021/01/06 06:46:32;;;;;;;9.87;6.80;;;1.10;99.90;;;;;;4893169;29;20227;-77
2021/01/06 06:49:11;;;;;;;11.57;7.17;;;1.20;99.90;;;;;;4907779;29;20236;-76
2021/01/06 06:52:03;;;;;;;8.57;6.13;;;1.20;99.90;;;;;;4907843;29;20212;-77
2021/01/06 06:54:58;;;;;;;7.77;5.70;;;1.20;99.90;;;;;;4907948;29;20237;-77
2021/01/06 06:57:31;;;;;;;7.07;4.97;;;1.20;99.90;;;;;;4893400;29;20264;-76
2021/01/06 07:00:19;;;;;;;9.00;6.40;;;1.20;99.90;;;;;;4892542;29;20749;-76
2021/01/06 07:02:55;;;;;;;9.37;6.10;;;1.20;99.90;;;;;;4893497;29;20228;-76
2021/01/06 07:05:51;;;;;;;6.63;5.47;;;1.20;99.90;;;;;;4907155;29;20303;-77
2021/01/06 07:08:20;;;;;;;6.80;4.53;;;1.20;99.90;;;;;;4910308;29;20642;-77
2021/01/06 07:10:59;;;;;;;6.83;5.33;;;1.20;99.90;;;;;;4907682;29;20213;-77
2021/01/06 07:13:28;;;;;;;5.47;4.40;;;1.20;99.90;;;;;;4907535;29;20189;-76
2021/01/06 07:15:58;;;;;;;8.90;5.57;;;1.20;99.90;;;;;;4893340;29;20221;-77
2021/01/06 07:18:24;;;;;;;7.07;5.23;;;1.20;99.90;;;;;;4907261;29;20225;-76
2021/01/06 07:21:17;;;;;;;6.73;5.03;;;1.20;99.90;;;;;;4893845;29;20236;-76
2021/01/06 07:24:00;;;;;;;7.73;5.57;;;1.20;99.90;;;;;;4896623;29;20208;-77
2021/01/06 07:26:29;;;;;;;10.07;6.70;;;1.20;99.90;;;;;;4911031;29;20248;-76
2021/01/06 07:29:06;;;;;;;7.97;6.23;;;1.20;99.90;;;;;;4896542;29;20225;-77
2021/01/06 07:31:41;;;;;;;10.07;6.50;;;1.20;99.90;;;;;;4911002;29;20189;-76
2021/01/06 07:34:21;;;;;;;9.63;6.30;;;1.20;99.90;;;;;;4896313;29;20211;-76
2021/01/06 07:36:58;;;;;;;8.13;6.40;;;1.30;99.90;;;;;;4910757;29;20203;-76
2021/01/06 07:39:31;;;;;;;11.60;6.70;;;1.30;99.90;;;;;;4896218;29;20252;-76
2021/01/06 07:42:05;;;;;;;11.63;6.43;;;1.30;99.90;;;;;;4912423;29;20216;-76
2021/01/06 07:44:38;;;;;;;8.33;5.77;;;1.30;99.90;;;;;;4913557;29;20192;-77
2021/01/06 07:47:19;;;;;;;10.57;6.27;;;1.30;99.90;;;;;;4913914;29;20659;-77
2021/01/06 07:49:58;;;;;;;9.33;6.07;;;1.30;99.90;;;;;;4913489;29;20238;-76
2021/01/06 07:52:54;;;;;;;10.57;6.80;;;1.40;99.90;;;;;;4929090;29;20279;-76
2021/01/06 07:55:32;;;;;;;11.67;7.30;;;1.40;99.90;;;;;;4912336;29;20204;-76
2021/01/06 07:58:37;;;;;;;9.50;6.13;;;1.40;99.90;;;;;;4914112;29;20265;-76
2021/01/06 08:01:06;;;;;;;9.30;6.30;;;1.40;99.90;;;;;;4931078;29;20216;-76
2021/01/06 08:03:57;;;;;;;9.30;6.17;;;1.40;99.90;;;;;;4914849;29;20211;-77
2021/01/06 08:06:42;;;;;;;10.83;7.07;;;1.50;99.90;;;;;;4930212;29;20192;-76
2021/01/06 08:09:08;;;;;;;9.53;6.83;;;1.60;99.90;;;;;;4914330;29;20231;-77
2021/01/06 08:11:46;;;;;;;9.53;6.07;;;1.70;99.90;;;;;;4914522;29;20267;-77
2021/01/06 08:14:24;;;;;;;10.23;6.60;;;1.80;99.90;;;;;;4914547;29;20203;-77
2021/01/06 08:17:13;;;;;;;8.23;5.20;;;1.80;99.90;;;;;;4911228;29;20208;-77
2021/01/06 08:20:07;;;;;;;8.50;6.00;;;1.90;99.90;;;;;;4895242;29;20228;-77
2021/01/06 08:22:40;;;;;;;11.73;6.53;;;1.90;99.90;;;;;;4895527;29;20232;-77
2021/01/06 08:25:24;;;;;;;11.70;6.47;;;1.90;99.90;;;;;;4910899;29;20639;-77
2021/01/06 08:27:51;;;;;;;9.37;6.40;;;1.80;99.90;;;;;;4895409;29;20328;-76
2021/01/06 08:30:20;;;;;;;9.03;5.60;;;1.90;99.90;;;;;;4910806;29;20208;-76
2021/01/06 08:32:49;;;;;;;10.30;7.03;;;1.90;99.90;;;;;;4895115;29;20781;-77
2021/01/06 08:35:20;;;;;;;9.07;6.13;;;1.90;99.90;;;;;;4894734;29;20965;-76
2021/01/06 08:37:51;;;;;;;10.17;6.67;;;1.90;99.90;;;;;;4893441;29;20209;-77
2021/01/06 08:40:29;;;;;;;15.33;7.13;;;1.90;99.90;;;;;;4893680;29;20295;-77
2021/01/06 08:43:07;;;;;;;10.50;6.77;;;1.90;99.90;;;;;;4893331;29;20699;-76
2021/01/06 08:45:36;;;;;;;9.97;6.27;;;1.90;99.90;;;;;;4893477;29;20220;-77
2021/01/06 08:48:24;;;;;;;10.47;7.07;;;1.80;99.90;;;;;;4894037;29;20295;-77
2021/01/06 08:50:52;;;;;;;12.93;7.33;;;1.80;99.90;;;;;;4924582;29;20300;-76
2021/01/06 08:53:30;;;;;;;13.13;7.03;;;1.80;99.90;;;;;;4893016;29;20245;-76
2021/01/06 08:55:59;;;;;;;16.93;7.67;;;1.80;99.90;;;;;;4892605;29;20248;-76
2021/01/06 08:58:46;;;;;;;13.83;7.70;;;1.70;99.90;;;;;;4892647;29;20237;-76
2021/01/06 09:01:25;;;;;;;18.53;7.53;;;1.70;99.90;;;;;;4893142;29;20193;-76
2021/01/06 09:04:37;;;;;;;14.80;7.20;;;1.70;99.90;;;;;;4893934;29;20755;-76
2021/01/06 09:07:09;;;;;;;14.37;6.70;;;1.70;99.90;;;;;;4904079;29;20299;-76
2021/01/06 09:09:57;;;;;;;13.17;7.90;;;1.60;99.90;;;;;;4911162;29;20243;-76
2021/01/06 09:12:56;;;;;;;14.77;7.63;;;1.60;99.90;;;;;;4924169;29;20235;-76
2021/01/06 09:15:48;;;;;;;11.17;6.93;;;1.60;99.90;;;;;;4894596;29;20232;-76
2021/01/06 09:18:45;;;;;;;11.27;7.13;;;1.60;99.90;;;;;;4892514;29;20189;-76
2021/01/06 09:21:15;;;;;;;12.07;7.03;;;1.60;99.90;;;;;;4906437;29;20232;-76
2021/01/06 09:23:49;;;;;;;11.50;7.53;;;1.60;99.90;;;;;;4942980;29;20586;-76
2021/01/06 09:26:19;;;;;;;10.53;6.77;;;1.70;99.90;;;;;;4912700;29;20224;-76
2021/01/06 09:28:57;;;;;;;11.73;6.57;;;1.70;99.90;;;;;;4912485;29;20287;-76
2021/01/06 09:31:24;;;;;;;9.80;6.33;;;1.70;99.90;;;;;;4913277;29;20189;-76
2021/01/06 09:33:52;;;;;;;9.40;6.43;;;1.70;99.90;;;;;;4927107;29;20246;-76
2021/01/06 09:36:22;;;;;;;12.63;6.97;;;1.80;99.90;;;;;;4926607;29;20237;-76
2021/01/06 09:38:51;;;;;;;15.37;7.60;;;1.80;99.90;;;;;;4927057;29;20259;-76
2021/01/06 09:41:29;;;;;;;9.57;6.20;;;1.80;99.90;;;;;;4937997;29;20721;-76
2021/01/06 09:44:05;;;;;;;11.53;6.73;;;1.90;99.90;;;;;;4945210;28;20194;-76
2021/01/06 09:47:02;;;;;;;10.23;6.50;;;1.90;99.90;;;;;;4930342;29;20195;-76
2021/01/06 09:49:37;;;;;;;8.10;5.57;;;1.90;99.90;;;;;;4930097;29;20219;-76
2021/01/06 09:52:12;;;;;;;9.07;6.07;;;2.00;99.90;;;;;;4930157;29;20590;-76
2021/01/06 09:54:39;;;;;;;7.40;5.47;;;2.10;99.90;;;;;;4929655;29;20660;-76
2021/01/06 09:57:15;;;;;;;8.00;5.63;;;2.20;99.90;;;;;;4931031;29;20230;-76
2021/01/06 09:59:41;;;;;;;7.67;4.93;;;2.20;99.90;;;;;;4929720;29;20204;-76
2021/01/06 10:02:31;;;;;;;8.33;5.73;;;2.30;99.90;;;;;;4930257;29;20561;-76
2021/01/06 10:05:27;;;;;;;7.67;5.63;;;2.30;99.90;;;;;;4929604;29;20192;-76
2021/01/06 10:08:20;;;;;;;7.37;5.00;;;2.30;99.90;;;;;;4945036;29;20219;-76
2021/01/06 10:10:50;;;;;;;7.30;5.70;;;2.40;99.90;;;;;;4926356;29;20259;-76
2021/01/06 10:13:34;;;;;;;6.97;4.83;;;2.50;99.90;;;;;;4911388;29;20211;-76
2021/01/06 10:16:06;;;;;;;6.27;4.83;;;2.60;99.90;;;;;;4910272;29;20212;-76
2021/01/06 10:18:39;;;;;;;5.37;4.10;;;2.70;99.90;;;;;;4910623;29;20678;-76
2021/01/06 10:21:16;;;;;;;6.17;4.63;;;2.80;99.90;;;;;;4911668;29;20702;-76
2021/01/06 10:24:17;;;;;;;5.30;4.10;;;2.90;99.90;;;;;;4910405;29;20579;-76
2021/01/06 10:26:55;;;;;;;6.07;4.00;;;3.00;99.90;;;;;;4910626;29;20634;-75
2021/01/06 10:29:28;;;;;;;5.20;4.20;;;3.10;99.90;;;;;;4912243;29;20216;-75
2021/01/06 10:32:12;;;;;;;6.60;4.03;;;3.20;99.90;;;;;;4910958;29;20204;-75
2021/01/06 10:34:41;;;;;;;6.33;4.50;;;3.30;99.90;;;;;;4911805;29;20200;-75
2021/01/06 10:37:25;;;;;;;6.30;4.43;;;3.40;99.90;;;;;;4910870;29;20300;-75
2021/01/06 10:40:13;;;;;;;6.17;4.37;;;3.50;99.90;;;;;;4910862;29;20191;-75
2021/01/06 10:42:41;;;;;;;6.27;4.83;;;3.50;99.90;;;;;;4926689;29;20288;-76
2021/01/06 10:45:13;;;;;;;7.03;4.57;;;3.70;99.90;;;;;;4926817;29;20204;-76
2021/01/06 10:47:52;;;;;;;5.97;4.40;;;3.90;99.90;;;;;;4911623;29;20538;-76
2021/01/06 10:50:31;;;;;;;6.60;4.87;;;4.00;99.90;;;;;;4910922;29;20733;-75
2021/01/06 10:53:02;;;;;;;5.70;4.13;;;4.00;99.90;;;;;;4912658;29;20291;-75
2021/01/06 10:55:56;;;;;;;6.40;4.67;;;4.10;99.90;;;;;;4928828;29;20192;-76
2021/01/06 10:58:57;;;;;;;6.20;4.67;;;4.10;99.90;;;;;;4930622;29;20572;-76
2021/01/06 11:01:27;;;;;;;7.30;5.20;;;4.20;99.90;;;;;;4930573;29;20271;-76
2021/01/06 11:04:32;;;;;;;6.20;4.50;;;4.40;99.90;;;;;;4930063;29;20662;-76
2021/01/06 11:07:14;;;;;;;6.80;4.87;;;4.50;99.90;;;;;;4933601;29;20215;-76
2021/01/06 11:10:06;;;;;;;4.77;3.77;;;4.60;99.90;;;;;;4948985;29;20208;-76
2021/01/06 11:13:03;;;;;;;5.20;3.80;;;4.80;99.90;;;;;;4930557;29;20196;-76
2021/01/06 11:15:38;;;;;;;4.27;3.63;;;4.90;99.90;;;;;;4913506;29;20205;-76
2021/01/06 11:18:32;;;;;;;7.50;3.90;;;4.90;99.90;;;;;;4930067;29;20204;-77
2021/01/06 11:22:01;;;;;;;7.47;4.43;;;5.00;99.90;;;;;;4930968;29;20311;-76
2021/01/06 11:24:50;;;;;;;5.50;3.97;;;5.20;99.90;;;;;;4917259;29;20628;-76
2021/01/06 11:27:45;;;;;;;4.77;3.30;;;5.20;99.90;;;;;;4916990;29;20628;-76
2021/01/06 11:30:34;;;;;;;5.40;3.70;;;5.30;99.90;;;;;;4917752;29;20210;-76
2021/01/06 11:33:25;;;;;;;6.57;3.27;;;5.30;99.90;;;;;;4915982;29;20256;-77
2021/01/06 11:36:07;;;;;;;4.77;3.47;;;5.30;99.90;;;;;;4915193;29;20192;-77
2021/01/06 11:38:37;;;;;;;4.63;3.60;;;5.30;99.90;;;;;;4914895;29;20228;-77
2021/01/06 11:41:25;;;;;;;4.40;3.30;;;5.30;99.90;;;;;;4929710;29;20207;-77
2021/01/06 11:44:10;;;;;;;4.37;3.47;;;5.30;99.90;;;;;;4933720;29;20272;-76
2021/01/06 11:46:52;;;;;;;3.80;3.37;;;5.30;99.90;;;;;;4933572;29;20200;-76
2021/01/06 11:49:27;;;;;;;4.70;2.93;;;5.10;99.90;;;;;;4933435;29;20231;-76
2021/01/06 11:52:24;;;;;;;4.50;3.27;;;5.00;99.90;;;;;;4934737;29;20648;-76
2021/01/06 11:55:09;;;;;;;4.30;2.93;;;4.90;99.90;;;;;;4949292;29;20247;-76
2021/01/06 11:57:55;;;;;;;6.77;4.07;;;4.80;99.90;;;;;;4933529;29;20263;-76
2021/01/06 12:00:43;;;;;;;4.97;3.37;;;4.70;99.90;;;;;;4933917;29;20202;-76
2021/01/06 12:03:19;;;;;;;3.87;3.30;;;4.60;99.90;;;;;;4932507;29;20653;-76
2021/01/06 12:06:28;;;;;;;3.80;3.17;;;4.50;99.90;;;;;;4932799;29;20235;-76
2021/01/06 12:09:07;;;;;;;4.17;3.00;;;4.40;99.90;;;;;;4934237;29;20226;-76
2021/01/06 12:12:04;;;;;;;5.57;3.00;;;4.30;99.90;;;;;;4933387;29;20439;-76
2021/01/06 12:14:35;;;;;;;5.10;3.53;;;4.20;99.90;;;;;;4931777;29;20675;-76
2021/01/06 12:17:24;;;;;;;4.43;3.33;;;4.10;99.90;;;;;;4932250;29;20594;-76
2021/01/06 12:20:07;;;;;;;3.97;2.97;;;4.00;99.90;;;;;;4948295;28;20231;-76
2021/01/06 12:22:35;;;;;;;3.77;2.90;;;3.90;99.90;;;;;;4947896;29;20243;-76
2021/01/06 12:25:26;;;;;;;3.90;3.43;;;3.80;99.90;;;;;;4931669;29;20646;-76
2021/01/06 12:28:26;;;;;;;4.43;3.80;;;3.70;99.90;;;;;;4933114;29;20305;-75
2021/01/06 12:31:10;;;;;;;5.33;4.10;;;3.60;99.90;;;;;;4932063;29;20215;-76
2021/01/06 12:33:39;;;;;;;4.70;3.73;;;3.60;99.90;;;;;;4931977;29;20192;-76
2021/01/06 12:36:27;;;;;;;5.37;4.60;;;3.60;99.90;;;;;;4930739;29;20200;-76
2021/01/06 12:39:14;;;;;;;7.27;5.53;;;3.60;99.90;;;;;;4930980;29;20199;-76
2021/01/06 12:42:18;;;;;;;5.30;4.57;;;3.60;99.90;;;;;;4947615;29;20636;-75
2021/01/06 12:45:23;;;;;;;5.63;4.80;;;3.60;99.90;;;;;;4914615;29;20211;-76
2021/01/06 12:48:04;;;;;;;5.80;4.63;;;3.70;99.90;;;;;;4855110;29;20771;-76
2021/01/06 12:50:59;;;;;;;5.63;4.93;;;3.60;99.90;;;;;;4855166;29;20277;-76
2021/01/06 12:53:34;;;;;;;6.20;5.30;;;3.60;99.90;;;;;;4853555;29;20216;-76
2021/01/06 12:56:43;;;;;;;8.03;5.30;;;3.60;99.90;;;;;;4854667;29;20675;-76
2021/01/06 12:59:21;;;;;;;9.20;6.20;;;3.50;99.90;;;;;;4854905;29;20218;-76
2021/01/06 13:01:48;;;;;;;7.63;6.10;;;3.50;99.90;;;;;;4854996;29;20214;-76
2021/01/06 13:04:19;;;;;;;7.17;6.10;;;3.50;99.90;;;;;;4854830;29;20582;-76
2021/01/06 13:06:56;;;;;;;8.47;6.60;;;3.50;99.90;;;;;;4845191;29;20202;-76
2021/01/06 13:09:38;;;;;;;8.13;6.20;;;3.40;99.90;;;;;;4838596;29;20229;-76
2021/01/06 13:12:31;;;;;;;7.87;6.27;;;3.30;99.90;;;;;;4839081;29;20815;-76
2021/01/06 13:15:08;;;;;;;6.70;5.60;;;3.30;99.90;;;;;;4822371;29;20298;-76
2021/01/06 13:17:42;;;;;;;7.53;6.73;;;3.10;99.90;;;;;;4858905;29;20300;-76
2021/01/06 13:20:17;;;;;;;8.57;6.63;;;3.00;99.90;;;;;;4929432;29;20237;-75
2021/01/06 13:22:54;;;;;;;9.90;7.50;;;2.90;99.90;;;;;;4933273;29;20235;-75
2021/01/06 13:25:27;;;;;;;8.77;6.60;;;2.80;99.90;;;;;;4932960;29;20195;-76
2021/01/06 13:28:00;;;;;;;9.27;7.33;;;2.80;99.90;;;;;;4931963;29;20259;-76
2021/01/06 13:30:29;;;;;;;8.60;6.83;;;2.80;99.90;;;;;;4931046;29;20207;-75
2021/01/06 13:33:12;;;;;;;8.73;6.73;;;2.80;99.90;;;;;;4930143;29;20200;-75
2021/01/06 13:35:57;;;;;;;9.67;7.63;;;2.80;99.90;;;;;;4931158;29;20835;-76
2021/01/06 13:38:31;;;;;;;9.87;7.43;;;2.80;99.90;;;;;;4929763;29;20211;-75
2021/01/06 13:41:01;;;;;;;8.13;6.73;;;2.90;99.90;;;;;;4927357;29;20212;-76
2021/01/06 13:43:56;;;;;;;8.57;6.80;;;2.90;99.90;;;;;;4910961;29;20646;-76
2021/01/06 13:46:36;;;;;;;10.13;7.07;;;3.00;99.90;;;;;;4911935;29;20243;-75